sensor_id;sensor_type;location;lat;lon;timestamp;P1;durP1;ratioP1;P2;durP2;ratioP2
9447;SDS011;4762;48.128;11.376;2023-05-16T00:00:51;4.67;;;2.17;;
9447;SDS011;4762;48.128;11.376;2023-05-16T00:02:54;4.40;;;3.03;;
9447;SDS011;4762;48.128;11.376;2023-05-16T00:04:56;6.03;;;2.80;;
9447;SDS011;4762;48.128;11.376;2023-05-16T00:06:58;2.80;;;1.83;;
9447;SDS011;4762;48.128;11.376;2023-05-16T00:09:00;4.97;;;3.00;;
9447;SDS011;4762;48.128;11.376;2023-05-16T00:11:02;2.23;;;1.57;;
9447;SDS011;4762;48.128;11.376;2023-05-16T00:13:05;4.23;;;2.67;;
9447;SDS011;4762;48.128;11.376;2023-05-16T00:15:07;2.67;;;1.77;;
9447;SDS011;4762;48.128;11.376;2023-05-16T00:17:10;2.47;;;1.70;;
9447;SDS011;4762;48.128;11.376;2023-05-16T00:19:12;3.17;;;2.17;;
9447;SDS011;4762;48.128;11.376;2023-05-16T00:21:14;2.60;;;1.60;;
9447;SDS011;4762;48.128;11.376;2023-05-16T00:23:17;3.20;;;2.00;;
9447;SDS011;4762;48.128;11.376;2023-05-16T00:25:19;2.03;;;1.40;;
9447;SDS011;4762;48.128;11.376;2023-05-16T00:27:21;3.27;;;2.00;;
9447;SDS011;4762;48.128;11.376;2023-05-16T00:29:23;3.43;;;2.20;;
9447;SDS011;4762;48.128;11.376;2023-05-16T00:31:26;2.63;;;1.97;;
9447;SDS011;4762;48.128;11.376;2023-05-16T00:33:28;4.40;;;2.37;;
9447;SDS011;4762;48.128;11.376;2023-05-16T00:35:30;3.37;;;1.83;;
9447;SDS011;4762;48.128;11.376;2023-05-16T00:37:32;4.93;;;2.00;;
9447;SDS011;4762;48.128;11.376;2023-05-16T00:39:35;2.70;;;1.53;;
9447;SDS011;4762;48.128;11.376;2023-05-16T00:41:37;4.17;;;2.70;;
9447;SDS011;4762;48.128;11.376;2023-05-16T00:43:39;3.17;;;2.20;;
9447;SDS011;4762;48.128;11.376;2023-05-16T00:45:41;2.80;;;1.97;;
9447;SDS011;4762;48.128;11.376;2023-05-16T00:47:44;3.03;;;2.20;;
9447;SDS011;4762;48.128;11.376;2023-05-16T00:49:46;2.50;;;1.80;;
9447;SDS011;4762;48.128;11.376;2023-05-16T00:51:48;2.63;;;2.00;;
9447;SDS011;4762;48.128;11.376;2023-05-16T00:53:50;2.73;;;1.80;;
9447;SDS011;4762;48.128;11.376;2023-05-16T00:55:53;2.50;;;2.30;;
9447;SDS011;4762;48.128;11.376;2023-05-16T00:57:56;2.50;;;2.00;;
9447;SDS011;4762;48.128;11.376;2023-05-16T00:59:58;2.17;;;1.63;;
9447;SDS011;4762;48.128;11.376;2023-05-16T01:02:00;3.30;;;2.50;;
9447;SDS011;4762;48.128;11.376;2023-05-16T01:04:04;2.63;;;2.10;;
9447;SDS011;4762;48.128;11.376;2023-05-16T01:06:06;4.37;;;2.70;;
9447;SDS011;4762;48.128;11.376;2023-05-16T01:10:36;2.13;;;1.93;;
9447;SDS011;4762;48.128;11.376;2023-05-16T01:12:41;4.97;;;2.27;;
9447;SDS011;4762;48.128;11.376;2023-05-16T01:15:12;1.77;;;1.47;;
9447;SDS011;4762;48.128;11.376;2023-05-16T01:19:46;3.43;;;2.20;;
9447;SDS011;4762;48.128;11.376;2023-05-16T01:21:47;4.00;;;2.33;;
9447;SDS011;4762;48.128;11.376;2023-05-16T01:23:50;3.87;;;2.33;;
9447;SDS011;4762;48.128;11.376;2023-05-16T01:28:08;3.20;;;2.10;;
9447;SDS011;4762;48.128;11.376;2023-05-16T01:30:13;2.70;;;2.07;;
9447;SDS011;4762;48.128;11.376;2023-05-16T01:32:16;3.80;;;2.50;;
9447;SDS011;4762;48.128;11.376;2023-05-16T01:34:18;3.87;;;2.27;;
9447;SDS011;4762;48.128;11.376;2023-05-16T01:36:25;3.90;;;1.77;;
9447;SDS011;4762;48.128;11.376;2023-05-16T01:38:33;2.47;;;1.80;;
9447;SDS011;4762;48.128;11.376;2023-05-16T01:40:35;3.00;;;1.90;;
9447;SDS011;4762;48.128;11.376;2023-05-16T01:42:36;2.70;;;2.27;;
9447;SDS011;4762;48.128;11.376;2023-05-16T01:44:38;3.10;;;2.03;;
9447;SDS011;4762;48.128;11.376;2023-05-16T01:46:55;4.70;;;2.80;;
9447;SDS011;4762;48.128;11.376;2023-05-16T01:48:59;3.30;;;2.60;;
9447;SDS011;4762;48.128;11.376;2023-05-16T01:51:00;2.83;;;2.30;;
9447;SDS011;4762;48.128;11.376;2023-05-16T01:53:05;4.37;;;2.73;;
9447;SDS011;4762;48.128;11.376;2023-05-16T01:55:09;2.93;;;2.33;;
9447;SDS011;4762;48.128;11.376;2023-05-16T01:57:10;3.57;;;2.47;;
9447;SDS011;4762;48.128;11.376;2023-05-16T01:59:13;2.90;;;2.10;;
9447;SDS011;4762;48.128;11.376;2023-05-16T02:01:15;4.13;;;2.73;;
9447;SDS011;4762;48.128;11.376;2023-05-16T02:03:17;3.27;;;2.60;;
9447;SDS011;4762;48.128;11.376;2023-05-16T02:05:19;2.57;;;1.73;;
9447;SDS011;4762;48.128;11.376;2023-05-16T02:07:22;2.93;;;2.23;;
9447;SDS011;4762;48.128;11.376;2023-05-16T02:09:24;4.90;;;2.50;;
9447;SDS011;4762;48.128;11.376;2023-05-16T02:11:27;3.33;;;2.30;;
9447;SDS011;4762;48.128;11.376;2023-05-16T02:13:29;2.40;;;1.80;;
9447;SDS011;4762;48.128;11.376;2023-05-16T02:15:31;2.57;;;1.73;;
9447;SDS011;4762;48.128;11.376;2023-05-16T02:17:33;5.93;;;3.67;;
9447;SDS011;4762;48.128;11.376;2023-05-16T02:19:36;2.60;;;1.90;;
9447;SDS011;4762;48.128;11.376;2023-05-16T02:21:38;2.60;;;2.00;;
9447;SDS011;4762;48.128;11.376;2023-05-16T02:23:40;3.60;;;2.17;;
9447;SDS011;4762;48.128;11.376;2023-05-16T02:25:42;3.37;;;2.27;;
9447;SDS011;4762;48.128;11.376;2023-05-16T02:27:44;2.70;;;1.70;;
9447;SDS011;4762;48.128;11.376;2023-05-16T02:29:47;5.00;;;2.37;;
9447;SDS011;4762;48.128;11.376;2023-05-16T02:31:49;2.63;;;2.00;;
9447;SDS011;4762;48.128;11.376;2023-05-16T02:33:51;3.63;;;1.93;;
9447;SDS011;4762;48.128;11.376;2023-05-16T02:35:53;3.10;;;1.70;;
9447;SDS011;4762;48.128;11.376;2023-05-16T02:37:55;2.70;;;1.97;;
9447;SDS011;4762;48.128;11.376;2023-05-16T02:39:58;2.97;;;1.93;;
9447;SDS011;4762;48.128;11.376;2023-05-16T02:42:00;2.60;;;2.17;;
9447;SDS011;4762;48.128;11.376;2023-05-16T02:44:02;5.53;;;2.50;;
9447;SDS011;4762;48.128;11.376;2023-05-16T02:46:37;6.77;;;2.40;;
9447;SDS011;4762;48.128;11.376;2023-05-16T02:48:22;6.70;;;2.80;;
9447;SDS011;4762;48.128;11.376;2023-05-16T02:50:24;1.63;;;1.33;;
9447;SDS011;4762;48.128;11.376;2023-05-16T02:52:26;7.07;;;2.70;;
9447;SDS011;4762;48.128;11.376;2023-05-16T02:54:29;2.47;;;2.17;;
9447;SDS011;4762;48.128;11.376;2023-05-16T02:56:31;6.47;;;2.97;;
9447;SDS011;4762;48.128;11.376;2023-05-16T02:58:33;2.70;;;2.23;;
9447;SDS011;4762;48.128;11.376;2023-05-16T03:00:35;4.47;;;2.93;;
9447;SDS011;4762;48.128;11.376;2023-05-16T03:02:37;3.70;;;2.37;;
9447;SDS011;4762;48.128;11.376;2023-05-16T03:04:41;2.67;;;2.40;;
9447;SDS011;4762;48.128;11.376;2023-05-16T03:06:43;3.90;;;2.73;;
9447;SDS011;4762;48.128;11.376;2023-05-16T03:08:45;3.60;;;2.30;;
9447;SDS011;4762;48.128;11.376;2023-05-16T03:10:48;3.53;;;2.50;;
9447;SDS011;4762;48.128;11.376;2023-05-16T03:12:50;3.80;;;2.70;;
9447;SDS011;4762;48.128;11.376;2023-05-16T03:14:52;3.60;;;2.30;;
9447;SDS011;4762;48.128;11.376;2023-05-16T03:16:54;4.63;;;2.63;;
9447;SDS011;4762;48.128;11.376;2023-05-16T03:18:57;3.03;;;2.17;;
9447;SDS011;4762;48.128;11.376;2023-05-16T03:20:59;5.10;;;3.03;;
9447;SDS011;4762;48.128;11.376;2023-05-16T03:23:01;3.27;;;2.43;;
9447;SDS011;4762;48.128;11.376;2023-05-16T03:25:03;3.10;;;2.60;;
9447;SDS011;4762;48.128;11.376;2023-05-16T03:27:06;3.17;;;2.50;;
9447;SDS011;4762;48.128;11.376;2023-05-16T03:29:08;3.47;;;2.77;;
9447;SDS011;4762;48.128;11.376;2023-05-16T03:31:11;3.40;;;2.10;;
9447;SDS011;4762;48.128;11.376;2023-05-16T03:33:13;3.90;;;2.77;;
9447;SDS011;4762;48.128;11.376;2023-05-16T03:35:15;3.50;;;2.50;;
9447;SDS011;4762;48.128;11.376;2023-05-16T03:37:17;4.10;;;3.00;;
9447;SDS011;4762;48.128;11.376;2023-05-16T03:39:19;3.53;;;2.27;;
9447;SDS011;4762;48.128;11.376;2023-05-16T03:41:22;2.93;;;2.50;;
9447;SDS011;4762;48.128;11.376;2023-05-16T03:43:24;4.40;;;2.80;;
9447;SDS011;4762;48.128;11.376;2023-05-16T03:45:26;6.33;;;3.20;;
9447;SDS011;4762;48.128;11.376;2023-05-16T03:47:28;3.33;;;2.53;;
9447;SDS011;4762;48.128;11.376;2023-05-16T03:49:30;4.30;;;2.63;;
9447;SDS011;4762;48.128;11.376;2023-05-16T03:51:33;3.23;;;2.93;;
9447;SDS011;4762;48.128;11.376;2023-05-16T03:53:35;5.07;;;2.53;;
9447;SDS011;4762;48.128;11.376;2023-05-16T03:55:37;6.30;;;3.40;;
9447;SDS011;4762;48.128;11.376;2023-05-16T03:57:39;8.33;;;5.40;;
9447;SDS011;4762;48.128;11.376;2023-05-16T03:59:42;6.10;;;2.93;;
9447;SDS011;4762;48.128;11.376;2023-05-16T04:01:44;2.10;;;1.77;;
9447;SDS011;4762;48.128;11.376;2023-05-16T04:03:46;5.67;;;3.53;;
9447;SDS011;4762;48.128;11.376;2023-05-16T04:05:49;2.47;;;2.03;;
9447;SDS011;4762;48.128;11.376;2023-05-16T04:07:51;4.40;;;3.07;;
9447;SDS011;4762;48.128;11.376;2023-05-16T04:09:53;2.97;;;2.40;;
9447;SDS011;4762;48.128;11.376;2023-05-16T04:11:55;4.20;;;2.80;;
9447;SDS011;4762;48.128;11.376;2023-05-16T04:13:57;3.43;;;3.10;;
9447;SDS011;4762;48.128;11.376;2023-05-16T04:16:00;3.13;;;2.33;;
9447;SDS011;4762;48.128;11.376;2023-05-16T04:18:03;3.17;;;2.67;;
9447;SDS011;4762;48.128;11.376;2023-05-16T04:20:05;4.13;;;3.10;;
9447;SDS011;4762;48.128;11.376;2023-05-16T04:22:07;2.70;;;2.10;;
9447;SDS011;4762;48.128;11.376;2023-05-16T04:24:10;5.90;;;3.67;;
9447;SDS011;4762;48.128;11.376;2023-05-16T04:26:12;3.07;;;2.77;;
9447;SDS011;4762;48.128;11.376;2023-05-16T04:28:14;5.83;;;2.93;;
9447;SDS011;4762;48.128;11.376;2023-05-16T04:30:16;4.70;;;2.73;;
9447;SDS011;4762;48.128;11.376;2023-05-16T04:32:18;3.00;;;2.70;;
9447;SDS011;4762;48.128;11.376;2023-05-16T04:34:21;3.80;;;2.63;;
9447;SDS011;4762;48.128;11.376;2023-05-16T04:36:23;4.27;;;3.23;;
9447;SDS011;4762;48.128;11.376;2023-05-16T04:38:25;5.03;;;3.33;;
9447;SDS011;4762;48.128;11.376;2023-05-16T04:40:27;7.00;;;3.33;;
9447;SDS011;4762;48.128;11.376;2023-05-16T04:42:30;2.90;;;2.47;;
9447;SDS011;4762;48.128;11.376;2023-05-16T04:44:32;3.97;;;2.80;;
9447;SDS011;4762;48.128;11.376;2023-05-16T04:46:34;11.13;;;3.13;;
9447;SDS011;4762;48.128;11.376;2023-05-16T04:48:36;3.30;;;2.63;;
9447;SDS011;4762;48.128;11.376;2023-05-16T04:50:38;3.90;;;3.00;;
9447;SDS011;4762;48.128;11.376;2023-05-16T04:55:06;4.70;;;3.47;;
9447;SDS011;4762;48.128;11.376;2023-05-16T04:57:09;4.60;;;3.27;;
9447;SDS011;4762;48.128;11.376;2023-05-16T04:59:12;3.70;;;2.77;;
9447;SDS011;4762;48.128;11.376;2023-05-16T05:01:14;4.50;;;3.07;;
9447;SDS011;4762;48.128;11.376;2023-05-16T05:03:17;15.03;;;3.27;;
9447;SDS011;4762;48.128;11.376;2023-05-16T05:05:19;4.73;;;3.23;;
9447;SDS011;4762;48.128;11.376;2023-05-16T05:07:21;4.80;;;3.37;;
9447;SDS011;4762;48.128;11.376;2023-05-16T05:09:23;4.83;;;3.60;;
9447;SDS011;4762;48.128;11.376;2023-05-16T05:11:25;5.20;;;3.10;;
9447;SDS011;4762;48.128;11.376;2023-05-16T05:13:28;3.63;;;3.00;;
9447;SDS011;4762;48.128;11.376;2023-05-16T05:15:30;7.87;;;2.77;;
9447;SDS011;4762;48.128;11.376;2023-05-16T05:17:32;5.13;;;2.87;;
9447;SDS011;4762;48.128;11.376;2023-05-16T05:19:34;3.10;;;2.47;;
9447;SDS011;4762;48.128;11.376;2023-05-16T05:21:36;4.27;;;3.00;;
9447;SDS011;4762;48.128;11.376;2023-05-16T05:23:39;4.93;;;3.33;;
9447;SDS011;4762;48.128;11.376;2023-05-16T05:25:41;4.37;;;2.53;;
9447;SDS011;4762;48.128;11.376;2023-05-16T05:27:43;7.20;;;4.13;;
9447;SDS011;4762;48.128;11.376;2023-05-16T05:29:46;5.10;;;3.50;;
9447;SDS011;4762;48.128;11.376;2023-05-16T05:31:48;7.50;;;4.10;;
9447;SDS011;4762;48.128;11.376;2023-05-16T05:33:50;7.90;;;5.70;;
9447;SDS011;4762;48.128;11.376;2023-05-16T05:35:53;6.70;;;4.30;;
9447;SDS011;4762;48.128;11.376;2023-05-16T05:37:55;5.67;;;4.77;;
9447;SDS011;4762;48.128;11.376;2023-05-16T05:39:57;5.30;;;4.00;;
9447;SDS011;4762;48.128;11.376;2023-05-16T05:42:00;4.03;;;3.27;;
9447;SDS011;4762;48.128;11.376;2023-05-16T05:44:02;4.53;;;3.60;;
9447;SDS011;4762;48.128;11.376;2023-05-16T05:46:04;4.57;;;4.13;;
9447;SDS011;4762;48.128;11.376;2023-05-16T05:48:07;5.07;;;3.60;;
9447;SDS011;4762;48.128;11.376;2023-05-16T05:50:09;6.70;;;4.20;;
9447;SDS011;4762;48.128;11.376;2023-05-16T05:52:12;5.00;;;3.80;;
9447;SDS011;4762;48.128;11.376;2023-05-16T05:54:14;4.67;;;3.43;;
9447;SDS011;4762;48.128;11.376;2023-05-16T05:56:17;6.23;;;4.20;;
9447;SDS011;4762;48.128;11.376;2023-05-16T05:58:20;6.30;;;4.20;;
9447;SDS011;4762;48.128;11.376;2023-05-16T06:00:21;4.97;;;3.33;;
9447;SDS011;4762;48.128;11.376;2023-05-16T06:02:23;6.30;;;4.77;;
9447;SDS011;4762;48.128;11.376;2023-05-16T06:04:26;5.43;;;3.87;;
9447;SDS011;4762;48.128;11.376;2023-05-16T06:06:28;7.57;;;4.17;;
9447;SDS011;4762;48.128;11.376;2023-05-16T06:08:31;6.67;;;4.17;;
9447;SDS011;4762;48.128;11.376;2023-05-16T06:10:33;7.47;;;4.70;;
9447;SDS011;4762;48.128;11.376;2023-05-16T06:12:35;10.70;;;4.20;;
9447;SDS011;4762;48.128;11.376;2023-05-16T06:14:38;4.67;;;3.50;;
9447;SDS011;4762;48.128;11.376;2023-05-16T06:16:41;6.33;;;4.30;;
9447;SDS011;4762;48.128;11.376;2023-05-16T06:18:43;6.00;;;4.47;;
9447;SDS011;4762;48.128;11.376;2023-05-16T06:20:45;13.20;;;4.50;;
9447;SDS011;4762;48.128;11.376;2023-05-16T06:22:47;7.83;;;5.00;;
9447;SDS011;4762;48.128;11.376;2023-05-16T06:24:49;8.53;;;4.50;;
9447;SDS011;4762;48.128;11.376;2023-05-16T06:26:52;7.30;;;4.70;;
9447;SDS011;4762;48.128;11.376;2023-05-16T06:28:54;6.87;;;4.03;;
9447;SDS011;4762;48.128;11.376;2023-05-16T06:30:56;6.97;;;4.73;;
9447;SDS011;4762;48.128;11.376;2023-05-16T06:32:58;7.20;;;5.17;;
9447;SDS011;4762;48.128;11.376;2023-05-16T06:35:01;4.87;;;4.03;;
9447;SDS011;4762;48.128;11.376;2023-05-16T06:37:03;9.97;;;4.70;;
9447;SDS011;4762;48.128;11.376;2023-05-16T06:39:05;9.73;;;5.43;;
9447;SDS011;4762;48.128;11.376;2023-05-16T06:41:07;5.47;;;3.97;;
9447;SDS011;4762;48.128;11.376;2023-05-16T06:43:10;6.13;;;4.13;;
9447;SDS011;4762;48.128;11.376;2023-05-16T06:45:13;7.00;;;4.63;;
9447;SDS011;4762;48.128;11.376;2023-05-16T06:47:15;7.23;;;4.17;;
9447;SDS011;4762;48.128;11.376;2023-05-16T06:51:43;6.20;;;4.40;;
9447;SDS011;4762;48.128;11.376;2023-05-16T06:53:45;5.60;;;4.37;;
9447;SDS011;4762;48.128;11.376;2023-05-16T06:55:48;7.70;;;4.70;;
9447;SDS011;4762;48.128;11.376;2023-05-16T06:57:50;5.70;;;4.20;;
9447;SDS011;4762;48.128;11.376;2023-05-16T07:02:20;6.57;;;5.10;;
9447;SDS011;4762;48.128;11.376;2023-05-16T07:04:22;7.47;;;4.63;;
9447;SDS011;4762;48.128;11.376;2023-05-16T07:06:24;6.73;;;4.90;;
9447;SDS011;4762;48.128;11.376;2023-05-16T07:08:27;12.10;;;4.60;;
9447;SDS011;4762;48.128;11.376;2023-05-16T07:10:29;5.63;;;5.00;;
9447;SDS011;4762;48.128;11.376;2023-05-16T07:12:31;7.33;;;5.20;;
9447;SDS011;4762;48.128;11.376;2023-05-16T07:14:33;6.30;;;4.77;;
9447;SDS011;4762;48.128;11.376;2023-05-16T07:16:37;9.10;;;4.83;;
9447;SDS011;4762;48.128;11.376;2023-05-16T07:21:06;5.33;;;3.90;;
9447;SDS011;4762;48.128;11.376;2023-05-16T07:23:08;7.00;;;4.77;;
9447;SDS011;4762;48.128;11.376;2023-05-16T07:25:11;7.60;;;5.37;;
9447;SDS011;4762;48.128;11.376;2023-05-16T07:27:13;7.00;;;4.93;;
9447;SDS011;4762;48.128;11.376;2023-05-16T07:29:16;5.73;;;4.40;;
9447;SDS011;4762;48.128;11.376;2023-05-16T07:31:18;5.17;;;4.20;;
9447;SDS011;4762;48.128;11.376;2023-05-16T07:33:20;6.93;;;5.10;;
9447;SDS011;4762;48.128;11.376;2023-05-16T07:35:22;4.57;;;3.80;;
9447;SDS011;4762;48.128;11.376;2023-05-16T07:37:25;5.90;;;4.07;;
9447;SDS011;4762;48.128;11.376;2023-05-16T07:39:29;6.17;;;4.43;;
9447;SDS011;4762;48.128;11.376;2023-05-16T07:41:31;6.23;;;4.47;;
9447;SDS011;4762;48.128;11.376;2023-05-16T07:43:33;9.27;;;4.60;;
9447;SDS011;4762;48.128;11.376;2023-05-16T07:45:35;5.90;;;3.10;;
9447;SDS011;4762;48.128;11.376;2023-05-16T07:47:38;3.43;;;3.03;;
9447;SDS011;4762;48.128;11.376;2023-05-16T07:49:40;8.80;;;4.57;;
9447;SDS011;4762;48.128;11.376;2023-05-16T07:51:42;9.70;;;4.67;;
9447;SDS011;4762;48.128;11.376;2023-05-16T07:53:44;4.00;;;3.53;;
9447;SDS011;4762;48.128;11.376;2023-05-16T07:55:48;8.10;;;4.27;;
9447;SDS011;4762;48.128;11.376;2023-05-16T07:57:50;5.50;;;3.70;;
9447;SDS011;4762;48.128;11.376;2023-05-16T07:59:52;5.43;;;3.97;;
9447;SDS011;4762;48.128;11.376;2023-05-16T08:01:54;11.03;;;5.73;;
9447;SDS011;4762;48.128;11.376;2023-05-16T08:03:56;6.30;;;4.43;;
9447;SDS011;4762;48.128;11.376;2023-05-16T08:05:58;4.70;;;4.13;;
9447;SDS011;4762;48.128;11.376;2023-05-16T08:08:01;8.20;;;5.00;;
9447;SDS011;4762;48.128;11.376;2023-05-16T08:10:03;10.53;;;5.57;;
9447;SDS011;4762;48.128;11.376;2023-05-16T08:12:06;5.83;;;4.63;;
9447;SDS011;4762;48.128;11.376;2023-05-16T08:14:08;8.17;;;5.13;;
9447;SDS011;4762;48.128;11.376;2023-05-16T08:16:10;6.53;;;5.60;;
9447;SDS011;4762;48.128;11.376;2023-05-16T08:18:13;4.83;;;4.23;;
9447;SDS011;4762;48.128;11.376;2023-05-16T08:20:15;6.87;;;4.60;;
9447;SDS011;4762;48.128;11.376;2023-05-16T08:22:17;6.17;;;4.40;;
9447;SDS011;4762;48.128;11.376;2023-05-16T08:24:20;6.17;;;3.90;;
9447;SDS011;4762;48.128;11.376;2023-05-16T08:26:22;6.00;;;4.70;;
9447;SDS011;4762;48.128;11.376;2023-05-16T08:28:24;6.37;;;4.53;;
9447;SDS011;4762;48.128;11.376;2023-05-16T08:30:27;10.20;;;4.37;;
9447;SDS011;4762;48.128;11.376;2023-05-16T08:32:30;8.97;;;5.50;;
9447;SDS011;4762;48.128;11.376;2023-05-16T08:34:32;5.27;;;4.30;;
9447;SDS011;4762;48.128;11.376;2023-05-16T08:36:35;5.53;;;4.30;;
9447;SDS011;4762;48.128;11.376;2023-05-16T08:38:37;8.93;;;5.60;;
9447;SDS011;4762;48.128;11.376;2023-05-16T09:03:44;8.07;;;6.13;;
9447;SDS011;4762;48.128;11.376;2023-05-16T09:05:46;8.43;;;6.07;;
9447;SDS011;4762;48.128;11.376;2023-05-16T09:07:49;7.87;;;4.83;;
9447;SDS011;4762;48.128;11.376;2023-05-16T09:09:53;9.73;;;6.47;;
9447;SDS011;4762;48.128;11.376;2023-05-16T09:11:55;8.40;;;5.77;;
9447;SDS011;4762;48.128;11.376;2023-05-16T09:13:57;11.73;;;6.00;;
9447;SDS011;4762;48.128;11.376;2023-05-16T09:18:10;11.67;;;5.73;;
9447;SDS011;4762;48.128;11.376;2023-05-16T09:20:12;5.87;;;5.00;;
9447;SDS011;4762;48.128;11.376;2023-05-16T09:22:16;7.23;;;5.70;;
9447;SDS011;4762;48.128;11.376;2023-05-16T09:24:18;9.90;;;7.00;;
9447;SDS011;4762;48.128;11.376;2023-05-16T09:26:22;9.73;;;7.20;;
9447;SDS011;4762;48.128;11.376;2023-05-16T09:28:26;9.30;;;6.97;;
9447;SDS011;4762;48.128;11.376;2023-05-16T09:30:30;9.83;;;5.60;;
9447;SDS011;4762;48.128;11.376;2023-05-16T09:32:32;9.23;;;6.57;;
9447;SDS011;4762;48.128;11.376;2023-05-16T09:34:38;12.67;;;6.27;;
9447;SDS011;4762;48.128;11.376;2023-05-16T09:36:53;10.70;;;7.87;;
9447;SDS011;4762;48.128;11.376;2023-05-16T09:38:52;13.53;;;7.00;;
9447;SDS011;4762;48.128;11.376;2023-05-16T09:40:56;8.80;;;6.27;;
9447;SDS011;4762;48.128;11.376;2023-05-16T09:43:02;8.03;;;6.57;;
9447;SDS011;4762;48.128;11.376;2023-05-16T09:45:05;7.37;;;5.47;;
9447;SDS011;4762;48.128;11.376;2023-05-16T09:47:07;8.47;;;6.73;;
9447;SDS011;4762;48.128;11.376;2023-05-16T09:49:11;13.17;;;6.47;;
9447;SDS011;4762;48.128;11.376;2023-05-16T09:51:13;8.27;;;5.17;;
9447;SDS011;4762;48.128;11.376;2023-05-16T09:53:15;10.50;;;6.57;;
9447;SDS011;4762;48.128;11.376;2023-05-16T09:55:18;7.30;;;5.70;;
9447;SDS011;4762;48.128;11.376;2023-05-16T09:57:21;7.40;;;5.47;;
9447;SDS011;4762;48.128;11.376;2023-05-16T09:59:24;8.27;;;6.30;;
9447;SDS011;4762;48.128;11.376;2023-05-16T10:01:27;11.53;;;6.87;;
9447;SDS011;4762;48.128;11.376;2023-05-16T10:03:29;6.60;;;5.50;;
9447;SDS011;4762;48.128;11.376;2023-05-16T10:05:31;7.27;;;6.20;;
9447;SDS011;4762;48.128;11.376;2023-05-16T10:07:34;8.17;;;6.40;;
9447;SDS011;4762;48.128;11.376;2023-05-16T10:09:37;7.00;;;6.27;;
9447;SDS011;4762;48.128;11.376;2023-05-16T10:11:39;11.37;;;6.97;;
9447;SDS011;4762;48.128;11.376;2023-05-16T10:13:41;8.90;;;7.00;;
9447;SDS011;4762;48.128;11.376;2023-05-16T10:15:44;8.53;;;6.03;;
9447;SDS011;4762;48.128;11.376;2023-05-16T10:17:49;13.47;;;7.50;;
9447;SDS011;4762;48.128;11.376;2023-05-16T10:19:50;8.33;;;6.50;;
9447;SDS011;4762;48.128;11.376;2023-05-16T10:21:53;10.80;;;7.70;;
9447;SDS011;4762;48.128;11.376;2023-05-16T10:23:56;8.73;;;6.57;;
9447;SDS011;4762;48.128;11.376;2023-05-16T10:25:59;10.43;;;6.43;;
9447;SDS011;4762;48.128;11.376;2023-05-16T10:28:02;8.00;;;6.87;;
9447;SDS011;4762;48.128;11.376;2023-05-16T10:30:04;12.47;;;7.63;;
9447;SDS011;4762;48.128;11.376;2023-05-16T10:32:08;11.17;;;6.83;;
9447;SDS011;4762;48.128;11.376;2023-05-16T10:34:14;7.83;;;6.70;;
9447;SDS011;4762;48.128;11.376;2023-05-16T10:36:16;8.07;;;6.33;;
9447;SDS011;4762;48.128;11.376;2023-05-16T10:38:21;11.40;;;6.00;;
9447;SDS011;4762;48.128;11.376;2023-05-16T10:40:27;10.30;;;6.23;;
9447;SDS011;4762;48.128;11.376;2023-05-16T10:42:31;10.97;;;6.37;;
9447;SDS011;4762;48.128;11.376;2023-05-16T10:44:34;8.07;;;6.83;;
9447;SDS011;4762;48.128;11.376;2023-05-16T10:46:37;7.77;;;5.87;;
9447;SDS011;4762;48.128;11.376;2023-05-16T10:48:40;9.70;;;6.53;;
9447;SDS011;4762;48.128;11.376;2023-05-16T10:50:44;8.57;;;7.23;;
9447;SDS011;4762;48.128;11.376;2023-05-16T10:52:51;14.23;;;6.97;;
9447;SDS011;4762;48.128;11.376;2023-05-16T10:54:50;10.30;;;7.73;;
9447;SDS011;4762;48.128;11.376;2023-05-16T10:56:55;7.10;;;6.30;;
9447;SDS011;4762;48.128;11.376;2023-05-16T10:58:59;9.00;;;6.70;;
9447;SDS011;4762;48.128;11.376;2023-05-16T11:03:23;10.00;;;7.30;;
9447;SDS011;4762;48.128;11.376;2023-05-16T11:05:26;9.03;;;6.87;;
9447;SDS011;4762;48.128;11.376;2023-05-16T11:07:31;10.97;;;8.10;;
9447;SDS011;4762;48.128;11.376;2023-05-16T11:09:32;12.10;;;7.80;;
9447;SDS011;4762;48.128;11.376;2023-05-16T11:16:25;9.57;;;7.33;;
9447;SDS011;4762;48.128;11.376;2023-05-16T11:18:07;7.90;;;6.30;;
9447;SDS011;4762;48.128;11.376;2023-05-16T11:22:28;10.03;;;7.40;;
9447;SDS011;4762;48.128;11.376;2023-05-16T11:27:08;8.80;;;6.50;;
9447;SDS011;4762;48.128;11.376;2023-05-16T11:37:00;10.83;;;7.10;;
9447;SDS011;4762;48.128;11.376;2023-05-16T11:39:06;8.90;;;7.77;;
9447;SDS011;4762;48.128;11.376;2023-05-16T11:41:11;9.70;;;7.10;;
9447;SDS011;4762;48.128;11.376;2023-05-16T11:43:17;9.13;;;6.30;;
9447;SDS011;4762;48.128;11.376;2023-05-16T11:45:17;12.30;;;7.37;;
9447;SDS011;4762;48.128;11.376;2023-05-16T11:47:19;10.27;;;6.70;;
9447;SDS011;4762;48.128;11.376;2023-05-16T11:49:22;11.93;;;6.93;;
9447;SDS011;4762;48.128;11.376;2023-05-16T11:51:25;8.70;;;6.47;;
9447;SDS011;4762;48.128;11.376;2023-05-16T11:53:28;6.87;;;5.97;;
9447;SDS011;4762;48.128;11.376;2023-05-16T11:55:31;9.50;;;6.90;;
9447;SDS011;4762;48.128;11.376;2023-05-16T11:57:34;9.57;;;7.50;;
9447;SDS011;4762;48.128;11.376;2023-05-16T11:59:36;9.63;;;8.03;;
9447;SDS011;4762;48.128;11.376;2023-05-16T12:01:38;7.73;;;6.90;;
9447;SDS011;4762;48.128;11.376;2023-05-16T12:03:41;8.20;;;7.10;;
9447;SDS011;4762;48.128;11.376;2023-05-16T12:07:52;9.53;;;6.70;;
9447;SDS011;4762;48.128;11.376;2023-05-16T12:09:56;8.70;;;6.33;;
9447;SDS011;4762;48.128;11.376;2023-05-16T12:11:58;11.17;;;7.90;;
9447;SDS011;4762;48.128;11.376;2023-05-16T12:14:02;12.30;;;8.17;;
9447;SDS011;4762;48.128;11.376;2023-05-16T12:16:04;9.57;;;7.07;;
9447;SDS011;4762;48.128;11.376;2023-05-16T12:18:06;15.20;;;8.70;;
9447;SDS011;4762;48.128;11.376;2023-05-16T12:20:09;13.83;;;9.57;;
9447;SDS011;4762;48.128;11.376;2023-05-16T12:22:16;11.30;;;8.80;;
9447;SDS011;4762;48.128;11.376;2023-05-16T12:24:19;14.53;;;8.23;;
9447;SDS011;4762;48.128;11.376;2023-05-16T13:11:08;8.20;;;7.27;;
9447;SDS011;4762;48.128;11.376;2023-05-16T13:13:11;13.77;;;8.60;;
9447;SDS011;4762;48.128;11.376;2023-05-16T13:15:14;9.70;;;8.50;;
9447;SDS011;4762;48.128;11.376;2023-05-16T13:17:17;13.47;;;8.20;;
9447;SDS011;4762;48.128;11.376;2023-05-16T13:19:19;16.30;;;8.80;;
9447;SDS011;4762;48.128;11.376;2023-05-16T13:21:24;9.80;;;7.37;;
9447;SDS011;4762;48.128;11.376;2023-05-16T13:23:26;13.43;;;8.40;;
9447;SDS011;4762;48.128;11.376;2023-05-16T13:25:29;13.53;;;6.93;;
9447;SDS011;4762;48.128;11.376;2023-05-16T13:27:32;11.00;;;6.30;;
9447;SDS011;4762;48.128;11.376;2023-05-16T13:29:34;8.33;;;6.23;;
9447;SDS011;4762;48.128;11.376;2023-05-16T13:31:36;7.47;;;5.33;;
9447;SDS011;4762;48.128;11.376;2023-05-16T13:33:39;6.03;;;4.20;;
9447;SDS011;4762;48.128;11.376;2023-05-16T13:35:42;10.23;;;4.37;;
9447;SDS011;4762;48.128;11.376;2023-05-16T13:37:44;7.50;;;3.90;;
9447;SDS011;4762;48.128;11.376;2023-05-16T13:39:46;19.63;;;4.77;;
9447;SDS011;4762;48.128;11.376;2023-05-16T13:41:49;4.67;;;3.83;;
9447;SDS011;4762;48.128;11.376;2023-05-16T13:43:51;7.07;;;4.33;;
9447;SDS011;4762;48.128;11.376;2023-05-16T13:45:53;5.90;;;4.53;;
9447;SDS011;4762;48.128;11.376;2023-05-16T13:47:56;4.70;;;3.90;;
9447;SDS011;4762;48.128;11.376;2023-05-16T13:49:58;4.83;;;4.27;;
9447;SDS011;4762;48.128;11.376;2023-05-16T13:52:00;6.43;;;3.57;;
9447;SDS011;4762;48.128;11.376;2023-05-16T13:54:02;4.47;;;3.67;;
9447;SDS011;4762;48.128;11.376;2023-05-16T13:56:05;4.83;;;3.03;;
9447;SDS011;4762;48.128;11.376;2023-05-16T13:58:07;10.90;;;4.27;;
9447;SDS011;4762;48.128;11.376;2023-05-16T14:00:09;6.37;;;3.87;;
9447;SDS011;4762;48.128;11.376;2023-05-16T14:02:13;4.43;;;3.13;;
9447;SDS011;4762;48.128;11.376;2023-05-16T14:04:15;5.00;;;4.03;;
9447;SDS011;4762;48.128;11.376;2023-05-16T14:06:19;4.73;;;3.20;;
9447;SDS011;4762;48.128;11.376;2023-05-16T14:08:20;4.30;;;3.70;;
9447;SDS011;4762;48.128;11.376;2023-05-16T14:10:23;4.53;;;3.50;;
9447;SDS011;4762;48.128;11.376;2023-05-16T14:12:25;3.70;;;2.70;;
9447;SDS011;4762;48.128;11.376;2023-05-16T14:14:27;3.60;;;3.03;;
9447;SDS011;4762;48.128;11.376;2023-05-16T14:29:16;3.23;;;2.47;;
9447;SDS011;4762;48.128;11.376;2023-05-16T14:31:20;3.30;;;2.80;;